Time;durP1;ratioP1;P1;durP2;ratioP2;P2;SDS_P1;SDS_P2;PMS_P1;PMS_P2;Temp;Humidity;BMP_temperature;BMP_pressure;BME280_temperature;BME280_humidity;BME280_pressure;Samples;Min_cycle;Max_cycle;Signal;HPM_P1;HPM_P2
2023/03/13 00:00:56;;;;;;;0.60;0.60;;;9.40;99.90;;;;;;5042977;28;20047;-79
2023/03/13 00:03:22;;;;;;;0.60;0.60;;;9.40;99.90;;;;;;5037244;28;20193;-79
2023/03/13 00:05:47;;;;;;;0.60;0.60;;;9.40;99.90;;;;;;5060187;28;20159;-80
2023/03/13 00:08:13;;;;;;;0.60;0.60;;;9.30;99.90;;;;;;5058051;28;20040;-79
2023/03/13 00:10:40;;;;;;;0.60;0.60;;;9.30;99.90;;;;;;5054304;28;20117;-79
2023/03/13 00:13:07;;;;;;;0.60;0.60;;;9.30;99.90;;;;;;5063574;28;20040;-79
2023/03/13 00:15:33;;;;;;;0.60;0.60;;;9.30;99.90;;;;;;5054126;28;20052;-79
2023/03/13 00:17:59;;;;;;;0.60;0.60;;;9.30;99.90;;;;;;5059300;28;20417;-79
2023/03/13 00:20:24;;;;;;;0.60;0.60;;;9.30;99.90;;;;;;5038582;28;20039;-79
2023/03/13 00:22:50;;;;;;;0.60;0.60;;;9.30;99.90;;;;;;5073382;28;20159;-80
2023/03/13 00:25:16;;;;;;;0.60;0.60;;;9.30;99.90;;;;;;5075691;28;20040;-79
2023/03/13 00:27:41;;;;;;;0.60;0.60;;;9.30;99.90;;;;;;5056622;28;20482;-79
2023/03/13 00:30:08;;;;;;;0.60;0.60;;;9.30;99.90;;;;;;5073720;28;20040;-79
2023/03/13 00:32:39;;;;;;;0.60;0.60;;;9.20;99.90;;;;;;5075917;28;20093;-80
2023/03/13 00:35:04;;;;;;;0.60;0.60;;;9.20;99.90;;;;;;5077223;28;20048;-80
2023/03/13 00:37:31;;;;;;;0.60;0.60;;;9.20;99.90;;;;;;5074994;28;20493;-78
2023/03/13 00:39:56;;;;;;;0.60;0.60;;;9.20;99.90;;;;;;5070385;28;20043;-80
2023/03/13 00:42:22;;;;;;;0.60;0.60;;;9.20;99.90;;;;;;5073841;28;20048;-79
2023/03/13 00:44:48;;;;;;;0.70;0.70;;;9.20;99.90;;;;;;5072054;28;20725;-79
2023/03/13 00:47:13;;;;;;;0.60;0.60;;;9.10;99.90;;;;;;5072974;28;20052;-80
2023/03/13 00:49:39;;;;;;;0.60;0.60;;;9.20;99.90;;;;;;5054598;28;20118;-79
2023/03/13 00:52:05;;;;;;;0.60;0.60;;;9.20;99.90;;;;;;5058821;28;20075;-80
2023/03/13 00:54:31;;;;;;;0.70;0.70;;;9.20;99.90;;;;;;5076222;28;20094;-79
2023/03/13 00:56:56;;;;;;;0.60;0.60;;;9.10;99.90;;;;;;5074193;28;20173;-79
2023/03/13 00:59:22;;;;;;;0.60;0.60;;;9.10;99.90;;;;;;5037626;28;20142;-80
2023/03/13 01:01:48;;;;;;;0.70;0.70;;;9.20;99.90;;;;;;5075658;28;20048;-79
2023/03/13 01:04:14;;;;;;;0.60;0.60;;;9.20;99.90;;;;;;5076851;28;20040;-80
2023/03/13 01:06:41;;;;;;;0.60;0.60;;;9.10;99.90;;;;;;5075477;28;20032;-80
2023/03/13 01:09:10;;;;;;;0.60;0.60;;;9.10;99.90;;;;;;5055150;28;20487;-79
2023/03/13 01:11:38;;;;;;;0.60;0.60;;;9.20;99.90;;;;;;5072272;28;20044;-79
2023/03/13 01:14:07;;;;;;;0.60;0.60;;;9.30;99.90;;;;;;5036799;28;20136;-80
2023/03/13 01:16:35;;;;;;;0.60;0.60;;;9.30;99.90;;;;;;5073625;28;20075;-80
2023/03/13 01:19:07;;;;;;;0.60;0.60;;;9.30;99.90;;;;;;5073087;28;20131;-80
2023/03/13 01:21:33;;;;;;;0.60;0.60;;;9.20;99.90;;;;;;5072557;28;20039;-79
2023/03/13 01:23:59;;;;;;;0.60;0.60;;;9.20;99.90;;;;;;5058128;28;20055;-80
2023/03/13 01:26:26;;;;;;;0.70;0.70;;;9.30;99.90;;;;;;5075994;28;20040;-80
2023/03/13 01:28:51;;;;;;;0.60;0.60;;;9.30;99.90;;;;;;5072792;28;20772;-80
2023/03/13 01:31:20;;;;;;;0.70;0.70;;;9.20;99.90;;;;;;5065836;28;20044;-81
2023/03/13 01:33:48;;;;;;;0.60;0.60;;;9.30;99.90;;;;;;5073131;28;20131;-80
2023/03/13 01:36:15;;;;;;;0.60;0.60;;;9.30;99.90;;;;;;5073991;28;20478;-80
2023/03/13 01:38:41;;;;;;;0.60;0.60;;;9.30;99.90;;;;;;5072592;28;20036;-80
2023/03/13 01:41:07;;;;;;;0.60;0.60;;;9.40;99.90;;;;;;5068529;28;20241;-80
2023/03/13 01:43:35;;;;;;;0.60;0.60;;;9.40;99.90;;;;;;5057489;28;20056;-81
2023/03/13 01:46:17;;;;;;;0.70;0.70;;;9.40;99.90;;;;;;5055618;28;20052;-80
2023/03/13 01:48:51;;;;;;;0.60;0.60;;;9.30;99.90;;;;;;5054973;28;20076;-82
2023/03/13 01:51:23;;;;;;;0.60;0.60;;;9.40;99.90;;;;;;5050888;28;20158;-80
2023/03/13 01:54:12;;;;;;;0.60;0.60;;;9.50;99.90;;;;;;5071936;28;20048;-81
2023/03/13 01:57:12;;;;;;;0.60;0.60;;;9.50;99.90;;;;;;5072392;28;20050;-81
2023/03/13 01:59:58;;;;;;;0.60;0.60;;;9.40;99.90;;;;;;5062874;28;20048;-82
2023/03/13 02:02:24;;;;;;;0.60;0.60;;;9.50;99.90;;;;;;5049748;28;20278;-81
2023/03/13 02:04:53;;;;;;;0.60;0.60;;;9.30;99.90;;;;;;5054760;28;20051;-81
2023/03/13 02:07:25;;;;;;;0.60;0.60;;;9.30;99.90;;;;;;5054948;28;20059;-81
2023/03/13 02:09:53;;;;;;;0.60;0.60;;;9.50;99.90;;;;;;5070817;28;20048;-81
2023/03/13 02:12:28;;;;;;;0.60;0.60;;;9.30;99.90;;;;;;5073270;28;20036;-82
2023/03/13 02:14:56;;;;;;;0.60;0.60;;;9.30;99.90;;;;;;5071725;28;20060;-81
2023/03/13 02:17:22;;;;;;;0.70;0.70;;;9.40;99.90;;;;;;5071552;28;20159;-81
2023/03/13 02:19:52;;;;;;;0.60;0.60;;;9.50;99.90;;;;;;5049151;28;20060;-81
2023/03/13 02:22:46;;;;;;;0.60;0.60;;;9.40;99.90;;;;;;5052312;28;20056;-81
2023/03/13 02:25:19;;;;;;;0.60;0.60;;;9.40;99.90;;;;;;5054349;28;20032;-81
2023/03/13 02:27:46;;;;;;;0.60;0.60;;;9.50;99.90;;;;;;5070475;28;20068;-83
2023/03/13 02:30:14;;;;;;;0.60;0.60;;;9.60;99.90;;;;;;5052755;28;20485;-82
2023/03/13 02:32:40;;;;;;;0.60;0.60;;;9.50;99.90;;;;;;5047789;28;20059;-81
2023/03/13 02:35:13;;;;;;;0.70;0.70;;;9.50;99.90;;;;;;5072881;28;20390;-82
2023/03/13 02:37:41;;;;;;;0.60;0.60;;;9.50;99.90;;;;;;5053896;28;20048;-82
2023/03/13 02:40:14;;;;;;;0.60;0.60;;;9.50;99.90;;;;;;5068858;28;20492;-82
2023/03/13 02:42:42;;;;;;;0.60;0.60;;;9.80;99.90;;;;;;5055237;28;20630;-80
2023/03/13 02:45:09;;;;;;;0.60;0.60;;;9.80;99.90;;;;;;5077277;28;20556;-82
2023/03/13 02:47:35;;;;;;;0.60;0.60;;;9.70;99.90;;;;;;5036219;28;20132;-82
2023/03/13 02:50:00;;;;;;;0.60;0.60;;;9.60;99.90;;;;;;5057308;28;20076;-82
2023/03/13 02:52:54;;;;;;;0.60;0.60;;;9.70;99.90;;;;;;5042447;28;20051;-82
2023/03/13 02:55:35;;;;;;;0.70;0.70;;;9.70;99.90;;;;;;5048343;28;20052;-83
2023/03/13 02:58:01;;;;;;;0.60;0.60;;;9.90;99.90;;;;;;5058524;28;20150;-82
2023/03/13 03:00:27;;;;;;;0.60;0.60;;;9.90;99.90;;;;;;5054986;28;20501;-83
2023/03/13 03:02:53;;;;;;;0.60;0.60;;;9.70;99.90;;;;;;5057113;28;20052;-81
2023/03/13 03:05:20;;;;;;;0.60;0.60;;;10.00;99.90;;;;;;5058902;28;20075;-81
2023/03/13 03:07:47;;;;;;;0.60;0.60;;;10.00;99.90;;;;;;5060811;28;20042;-81
2023/03/13 03:10:15;;;;;;;0.60;0.60;;;9.90;99.90;;;;;;5052977;28;20046;-82
2023/03/13 03:12:41;;;;;;;0.60;0.60;;;9.90;99.90;;;;;;5057377;28;20052;-84
2023/03/13 03:15:07;;;;;;;0.60;0.60;;;9.90;99.90;;;;;;5056694;28;20052;-83
2023/03/13 03:17:33;;;;;;;0.60;0.60;;;10.00;99.90;;;;;;5057870;28;20040;-83
2023/03/13 03:19:58;;;;;;;0.60;0.60;;;10.10;99.90;;;;;;5055405;28;20054;-82
2023/03/13 03:22:24;;;;;;;0.65;0.65;;;10.20;99.90;;;;;;5052924;28;20052;-87
2023/03/13 03:24:50;;;;;;;0.60;0.60;;;10.10;99.90;;;;;;5059338;28;20052;-83
2023/03/13 03:27:15;;;;;;;0.60;0.60;;;10.00;99.90;;;;;;5074885;28;20040;-83
2023/03/13 03:29:41;;;;;;;0.60;0.60;;;10.20;99.90;;;;;;5044886;28;20079;-83
2023/03/13 03:32:06;;;;;;;0.60;0.60;;;10.20;99.90;;;;;;5058051;28;20150;-82
2023/03/13 03:34:32;;;;;;;0.60;0.60;;;10.30;99.90;;;;;;5074330;28;20543;-82
2023/03/13 03:36:58;;;;;;;0.60;0.60;;;10.30;99.90;;;;;;5074544;28;20129;-82
2023/03/13 03:39:24;;;;;;;0.60;0.60;;;10.20;99.90;;;;;;5053693;28;20121;-84
2023/03/13 03:41:49;;;;;;;0.70;0.70;;;10.40;99.90;;;;;;5051074;28;20087;-82
2023/03/13 03:44:15;;;;;;;0.60;0.60;;;10.40;99.90;;;;;;5060441;28;20086;-82
2023/03/13 03:46:41;;;;;;;0.60;0.60;;;10.50;99.90;;;;;;5059902;28;20054;-81
2023/03/13 03:49:06;;;;;;;0.60;0.60;;;10.50;99.90;;;;;;5057647;28;20050;-82
2023/03/13 03:51:32;;;;;;;0.60;0.60;;;10.50;99.90;;;;;;5058777;28;20492;-81
2023/03/13 03:53:58;;;;;;;0.50;0.50;;;10.50;99.90;;;;;;5058509;28;20125;-81
2023/03/13 03:56:23;;;;;;;0.60;0.60;;;10.40;99.90;;;;;;5053618;28;20043;-81
2023/03/13 03:58:49;;;;;;;0.60;0.60;;;10.60;99.90;;;;;;5056524;28;20051;-82
2023/03/13 04:01:15;;;;;;;0.60;0.60;;;10.40;99.90;;;;;;5053144;28;20044;-82
2023/03/13 04:03:41;;;;;;;0.60;0.60;;;10.50;99.90;;;;;;5058327;28;20071;-83
2023/03/13 04:06:06;;;;;;;0.60;0.60;;;10.50;99.90;;;;;;5077379;28;20047;-82
2023/03/13 04:08:32;;;;;;;0.60;0.60;;;10.70;99.90;;;;;;5057648;28;20040;-81
2023/03/13 04:11:01;;;;;;;0.60;0.60;;;10.70;99.90;;;;;;5036194;28;20137;-82
2023/03/13 04:13:27;;;;;;;0.60;0.60;;;10.60;99.90;;;;;;5057434;28;20094;-83
2023/03/13 04:15:53;;;;;;;0.60;0.60;;;10.60;99.90;;;;;;5051534;28;21074;-82
2023/03/13 04:18:19;;;;;;;0.52;0.52;;;10.70;99.90;;;;;;5074552;28;20695;-83
2023/03/13 04:20:45;;;;;;;0.60;0.60;;;10.90;99.90;;;;;;5055291;28;20044;-82
2023/03/13 04:23:11;;;;;;;0.60;0.60;;;10.60;99.90;;;;;;5055833;28;20056;-85
2023/03/13 04:25:37;;;;;;;0.60;0.60;;;10.90;99.90;;;;;;5056684;28;20044;-82
2023/03/13 04:28:02;;;;;;;0.60;0.60;;;10.70;99.90;;;;;;5058800;28;20051;-82
2023/03/13 04:30:28;;;;;;;0.60;0.60;;;10.90;99.90;;;;;;5054648;28;21169;-81
2023/03/13 04:32:54;;;;;;;0.60;0.60;;;11.00;99.90;;;;;;5074704;28;20054;-82
2023/03/13 04:35:19;;;;;;;0.60;0.60;;;10.90;99.90;;;;;;5058115;28;20071;-82
2023/03/13 04:37:45;;;;;;;0.60;0.60;;;11.00;99.90;;;;;;5058101;28;20059;-80
2023/03/13 04:40:12;;;;;;;0.60;0.60;;;10.90;99.90;;;;;;5053820;28;20084;-82
2023/03/13 04:42:39;;;;;;;0.60;0.60;;;10.90;99.90;;;;;;5058080;28;20051;-81
2023/03/13 04:45:05;;;;;;;0.55;0.55;;;11.10;99.90;;;;;;5055757;28;20048;-83
2023/03/13 04:47:30;;;;;;;0.50;0.50;;;11.20;99.90;;;;;;5057263;28;20079;-81
2023/03/13 04:49:56;;;;;;;0.60;0.60;;;11.10;99.90;;;;;;5074414;28;20075;-82
2023/03/13 04:52:22;;;;;;;0.60;0.60;;;11.20;99.90;;;;;;5053918;28;20134;-82
2023/03/13 04:54:49;;;;;;;0.60;0.60;;;11.30;99.90;;;;;;5055709;28;20052;-82
2023/03/13 04:57:16;;;;;;;0.60;0.60;;;11.20;99.90;;;;;;5054659;28;20048;-82
2023/03/13 04:59:41;;;;;;;0.60;0.60;;;11.30;99.90;;;;;;5050620;28;20122;-81
2023/03/13 05:02:11;;;;;;;0.60;0.60;;;11.40;99.90;;;;;;5075531;28;20112;-82
2023/03/13 05:04:36;;;;;;;0.50;0.50;;;11.50;99.90;;;;;;5057347;28;20043;-83
2023/03/13 05:07:02;;;;;;;0.60;0.60;;;11.20;99.90;;;;;;5055704;28;20674;-83
2023/03/13 05:09:28;;;;;;;0.60;0.60;;;11.40;99.90;;;;;;5052751;28;20157;-82
2023/03/13 05:11:53;;;;;;;0.60;0.60;;;11.50;99.90;;;;;;5055162;28;20051;-81
2023/03/13 05:14:19;;;;;;;0.60;0.60;;;11.40;99.90;;;;;;5053217;28;20051;-82
2023/03/13 05:16:44;;;;;;;0.60;0.60;;;11.50;99.90;;;;;;5055418;28;20060;-83
2023/03/13 05:19:10;;;;;;;0.60;0.60;;;11.60;99.90;;;;;;5054718;28;20097;-82
2023/03/13 05:21:36;;;;;;;0.60;0.60;;;11.50;99.90;;;;;;5052718;28;20040;-81
2023/03/13 05:24:01;;;;;;;0.60;0.60;;;11.70;99.90;;;;;;5057745;28;20051;-83
2023/03/13 05:26:27;;;;;;;0.50;0.50;;;11.40;99.90;;;;;;5056175;28;20311;-82
2023/03/13 05:28:53;;;;;;;0.50;0.50;;;11.50;99.90;;;;;;5050319;28;20044;-83
2023/03/13 05:31:18;;;;;;;0.50;0.50;;;11.50;99.90;;;;;;5052297;28;20071;-82
2023/03/13 05:33:44;;;;;;;0.60;0.60;;;11.50;99.90;;;;;;5051768;28;20036;-83
2023/03/13 05:36:10;;;;;;;0.60;0.60;;;11.80;99.90;;;;;;5057067;28;20059;-83
2023/03/13 05:38:35;;;;;;;0.50;0.50;;;11.60;99.90;;;;;;5055751;28;20048;-83
2023/03/13 05:41:01;;;;;;;0.60;0.60;;;11.90;99.90;;;;;;5051730;28;20046;-83
2023/03/13 05:43:26;;;;;;;0.50;0.50;;;11.70;99.90;;;;;;5055789;28;20047;-83
2023/03/13 05:45:52;;;;;;;0.60;0.60;;;11.80;99.90;;;;;;5056470;28;20501;-83
2023/03/13 05:48:18;;;;;;;0.60;0.60;;;11.80;99.90;;;;;;5055776;28;20043;-81
2023/03/13 05:50:43;;;;;;;0.60;0.60;;;11.90;99.90;;;;;;5052424;28;20070;-83
2023/03/13 05:53:09;;;;;;;0.50;0.50;;;11.80;99.90;;;;;;5050650;28;20109;-82
2023/03/13 05:55:35;;;;;;;0.50;0.50;;;11.80;99.90;;;;;;5052253;28;20078;-83
2023/03/13 05:58:00;;;;;;;0.52;0.52;;;11.90;99.90;;;;;;5054065;28;20048;-82
2023/03/13 06:00:26;;;;;;;0.57;0.57;;;12.00;99.90;;;;;;5052510;28;20698;-82
2023/03/13 06:02:52;;;;;;;0.50;0.50;;;12.00;99.90;;;;;;5053654;28;20051;-82
2023/03/13 06:05:18;;;;;;;0.60;0.60;;;12.00;99.90;;;;;;5057562;28;20048;-83
2023/03/13 06:07:44;;;;;;;0.55;0.55;;;12.10;99.90;;;;;;5055342;28;20063;-83
2023/03/13 06:10:10;;;;;;;0.50;0.50;;;12.00;99.90;;;;;;5048094;28;20044;-82
2023/03/13 06:12:36;;;;;;;0.60;0.60;;;12.00;99.90;;;;;;5054002;28;20048;-84
2023/03/13 06:15:01;;;;;;;0.60;0.60;;;11.90;99.90;;;;;;5049622;28;20535;-81
2023/03/13 06:17:27;;;;;;;0.50;0.50;;;12.10;99.90;;;;;;5052777;28;20117;-82
2023/03/13 06:19:53;;;;;;;0.55;0.55;;;12.10;99.90;;;;;;5053109;28;20138;-82
2023/03/13 06:22:19;;;;;;;0.60;0.60;;;12.10;99.90;;;;;;5078272;28;20082;-83
2023/03/13 06:24:47;;;;;;;0.60;0.60;;;12.20;99.90;;;;;;5059155;28;20048;-83
2023/03/13 06:27:13;;;;;;;0.60;0.60;;;12.20;99.90;;;;;;5061682;28;20040;-82
2023/03/13 06:29:39;;;;;;;0.60;0.60;;;12.30;99.90;;;;;;5057260;28;20062;-84
2023/03/13 06:32:05;;;;;;;0.50;0.50;;;12.20;99.90;;;;;;5052712;28;20051;-83
2023/03/13 06:34:30;;;;;;;0.60;0.60;;;12.20;99.90;;;;;;5046913;28;20134;-83
2023/03/13 06:36:57;;;;;;;0.50;0.50;;;12.30;99.90;;;;;;5047811;28;20048;-82
2023/03/13 06:39:23;;;;;;;0.60;0.60;;;12.20;99.90;;;;;;5065392;28;20047;-83
2023/03/13 06:41:49;;;;;;;0.60;0.60;;;12.20;99.90;;;;;;5046402;28;20055;-83
2023/03/13 06:44:14;;;;;;;0.60;0.60;;;12.40;99.90;;;;;;5053664;28;20059;-82
2023/03/13 06:46:40;;;;;;;0.60;0.60;;;12.30;99.90;;;;;;5068717;28;20075;-83
2023/03/13 06:49:06;;;;;;;0.60;0.60;;;12.50;99.90;;;;;;5034446;28;20051;-85
2023/03/13 06:51:32;;;;;;;0.55;0.55;;;12.50;99.90;;;;;;5033541;28;20075;-82
2023/03/13 06:53:57;;;;;;;0.50;0.50;;;12.40;99.90;;;;;;5046732;28;20651;-84
2023/03/13 06:56:23;;;;;;;0.50;0.50;;;12.50;99.90;;;;;;5069278;28;20770;-83
2023/03/13 06:58:49;;;;;;;0.50;0.50;;;12.40;99.90;;;;;;5044907;28;20044;-81
2023/03/13 07:01:16;;;;;;;0.50;0.50;;;12.50;99.90;;;;;;5030031;28;20078;-81
2023/03/13 07:03:42;;;;;;;0.50;0.50;;;12.40;99.90;;;;;;5071961;28;20040;-82
2023/03/13 07:06:09;;;;;;;0.60;0.60;;;12.60;99.90;;;;;;5054015;28;20047;-83
2023/03/13 07:08:36;;;;;;;0.60;0.60;;;12.60;99.90;;;;;;5056920;28;20497;-80
2023/03/13 07:11:04;;;;;;;0.60;0.60;;;12.50;99.90;;;;;;5071371;28;20048;-81
2023/03/13 07:13:30;;;;;;;0.50;0.50;;;12.50;99.90;;;;;;5058609;28;20056;-82
2023/03/13 07:16:00;;;;;;;0.50;0.50;;;12.50;99.90;;;;;;5059926;28;20439;-85
2023/03/13 07:18:25;;;;;;;0.60;0.60;;;12.60;99.90;;;;;;5042345;28;20458;-84
2023/03/13 07:20:53;;;;;;;0.60;0.60;;;12.60;99.90;;;;;;5056476;28;20028;-83
2023/03/13 07:23:20;;;;;;;0.60;0.60;;;12.60;99.90;;;;;;5058108;28;20051;-81
2023/03/13 07:25:53;;;;;;;0.50;0.50;;;12.70;99.90;;;;;;5057820;28;20444;-81
2023/03/13 07:28:19;;;;;;;0.50;0.50;;;12.70;99.90;;;;;;5052351;28;20059;-82
2023/03/13 07:30:44;;;;;;;0.50;0.50;;;12.70;99.90;;;;;;5056441;28;20040;-85
2023/03/13 07:33:10;;;;;;;0.52;0.52;;;12.70;99.90;;;;;;5076700;28;20532;-81
2023/03/13 07:35:36;;;;;;;0.50;0.50;;;12.80;99.90;;;;;;5057855;28;20145;-82
2023/03/13 07:38:01;;;;;;;0.50;0.50;;;12.80;99.90;;;;;;5054630;28;20579;-81
2023/03/13 07:40:27;;;;;;;0.50;0.50;;;12.80;99.90;;;;;;5074728;28;20082;-81
2023/03/13 07:42:53;;;;;;;0.60;0.60;;;12.90;99.90;;;;;;5056340;28;20181;-81
2023/03/13 07:45:18;;;;;;;0.60;0.60;;;12.80;99.90;;;;;;5054602;28;20543;-85
2023/03/13 07:47:44;;;;;;;0.60;0.60;;;12.80;99.90;;;;;;5059800;28;20509;-82
2023/03/13 07:50:10;;;;;;;0.50;0.50;;;12.90;99.90;;;;;;5057028;28;20417;-81
2023/03/13 07:52:36;;;;;;;0.60;0.60;;;12.90;99.90;;;;;;5075529;28;20052;-81
2023/03/13 07:55:01;;;;;;;0.57;0.57;;;12.90;99.90;;;;;;5056906;28;20052;-84
2023/03/13 07:57:27;;;;;;;0.60;0.60;;;12.90;99.90;;;;;;5058849;28;20433;-81
2023/03/13 07:59:52;;;;;;;0.50;0.50;;;12.90;99.90;;;;;;5056067;28;20044;-80
2023/03/13 08:02:18;;;;;;;0.60;0.60;;;12.90;99.90;;;;;;5054849;28;20080;-82
2023/03/13 08:04:44;;;;;;;0.55;0.55;;;12.90;99.90;;;;;;5054091;28;20091;-83
2023/03/13 08:07:10;;;;;;;0.55;0.55;;;13.00;99.90;;;;;;5035148;28;20050;-82
2023/03/13 08:09:36;;;;;;;0.50;0.50;;;13.00;99.90;;;;;;5022991;28;20109;-82
2023/03/13 08:12:02;;;;;;;0.50;0.50;;;13.10;99.90;;;;;;5045654;28;20051;-82
2023/03/13 08:14:28;;;;;;;0.60;0.60;;;13.10;99.90;;;;;;5046821;28;20052;-85
2023/03/13 08:16:54;;;;;;;0.50;0.50;;;12.90;99.90;;;;;;5032493;28;20048;-81
2023/03/13 08:19:19;;;;;;;0.50;0.50;;;13.00;99.90;;;;;;5026065;28;20047;-81
2023/03/13 08:21:45;;;;;;;0.55;0.55;;;13.00;99.90;;;;;;5029869;28;20209;-83
2023/03/13 08:24:11;;;;;;;0.50;0.50;;;13.00;99.90;;;;;;5030786;28;20044;-85
2023/03/13 08:26:40;;;;;;;0.50;0.50;;;12.90;99.90;;;;;;5034566;28;20441;-83
2023/03/13 08:29:08;;;;;;;0.50;0.50;;;12.90;99.90;;;;;;5015760;28;20114;-82
2023/03/13 08:31:48;;;;;;;0.50;0.50;;;12.90;99.90;;;;;;5011238;28;20055;-82
2023/03/13 08:34:16;;;;;;;0.60;0.60;;;12.90;99.90;;;;;;5030504;28;20047;-82
2023/03/13 08:36:42;;;;;;;0.60;0.60;;;12.90;99.90;;;;;;5029565;28;20102;-82
2023/03/13 08:39:26;;;;;;;0.50;0.50;;;12.90;99.90;;;;;;5029406;28;20256;-81
2023/03/13 08:41:52;;;;;;;0.50;0.50;;;12.90;99.90;;;;;;5029069;28;20123;-82
2023/03/13 08:44:19;;;;;;;0.60;0.60;;;13.00;99.90;;;;;;5031454;28;20046;-81
2023/03/13 08:46:45;;;;;;;0.60;0.60;;;12.90;99.90;;;;;;5030970;28;20055;-85
2023/03/13 08:49:12;;;;;;;0.60;0.60;;;13.00;99.90;;;;;;5034062;28;20063;-81
2023/03/13 08:51:39;;;;;;;0.60;0.60;;;13.00;99.90;;;;;;5028343;28;20047;-81
2023/03/13 08:54:05;;;;;;;0.50;0.50;;;13.00;99.90;;;;;;5028988;28;20119;-81
2023/03/13 08:56:31;;;;;;;0.50;0.50;;;13.00;99.90;;;;;;5024562;28;20048;-83
2023/03/13 08:59:01;;;;;;;0.50;0.50;;;13.00;99.90;;;;;;5035851;28;20163;-81
2023/03/13 09:01:30;;;;;;;0.50;0.50;;;13.00;99.90;;;;;;5023895;28;20044;-81
2023/03/13 09:03:56;;;;;;;0.60;0.60;;;13.00;99.90;;;;;;5025056;28;20993;-82
2023/03/13 09:06:22;;;;;;;0.60;0.60;;;13.20;99.90;;;;;;5043024;28;20036;-82
2023/03/13 09:08:47;;;;;;;0.60;0.60;;;13.40;99.90;;;;;;5021360;28;20056;-81
2023/03/13 09:11:19;;;;;;;0.50;0.50;;;13.70;99.90;;;;;;5017031;28;20052;-81
2023/03/13 09:13:47;;;;;;;0.60;0.60;;;13.70;99.90;;;;;;5024997;28;20040;-83
2023/03/13 09:16:22;;;;;;;0.60;0.60;;;14.10;99.90;;;;;;5031432;28;20051;-82
2023/03/13 09:18:48;;;;;;;0.60;0.60;;;14.30;99.90;;;;;;5049387;28;20048;-84
2023/03/13 09:21:17;;;;;;;0.50;0.50;;;14.20;99.90;;;;;;5040265;28;20131;-80
2023/03/13 09:23:43;;;;;;;0.50;0.50;;;14.00;99.90;;;;;;5073590;28;20047;-82
2023/03/13 09:26:10;;;;;;;0.60;0.60;;;13.90;99.90;;;;;;5077124;28;20040;-81
2023/03/13 09:28:35;;;;;;;0.60;0.60;;;13.90;99.90;;;;;;5054827;28;20056;-81
2023/03/13 09:31:12;;;;;;;0.55;0.55;;;14.00;99.90;;;;;;5051597;28;20044;-82
2023/03/13 09:33:38;;;;;;;0.60;0.60;;;14.00;99.90;;;;;;5053465;28;20044;-80
2023/03/13 09:36:04;;;;;;;0.60;0.60;;;13.90;99.90;;;;;;5075901;28;20067;-78
2023/03/13 09:38:30;;;;;;;0.50;0.50;;;13.80;99.90;;;;;;5075025;28;20048;-82
2023/03/13 09:41:16;;;;;;;0.60;0.60;;;13.70;99.90;;;;;;5051283;28;20054;-81
2023/03/13 09:43:55;;;;;;;0.60;0.60;;;13.90;99.90;;;;;;5074121;28;20047;-82
2023/03/13 09:46:32;;;;;;;0.60;0.60;;;13.80;99.90;;;;;;5053623;28;20138;-81
2023/03/13 09:49:03;;;;;;;0.50;0.50;;;13.70;99.90;;;;;;5057034;28;20044;-81
2023/03/13 09:51:41;;;;;;;0.60;0.60;;;13.70;99.90;;;;;;5041792;28;20140;-81
2023/03/13 09:54:12;;;;;;;0.50;0.50;;;13.70;99.90;;;;;;5056728;28;20047;-81
2023/03/13 09:56:45;;;;;;;0.50;0.50;;;13.80;99.90;;;;;;5042571;28;20475;-83
2023/03/13 09:59:34;;;;;;;0.60;0.60;;;13.90;99.90;;;;;;5024800;28;20460;-82
2023/03/13 10:02:03;;;;;;;0.50;0.50;;;13.90;99.90;;;;;;5055875;28;20056;-81
2023/03/13 10:04:38;;;;;;;0.50;0.50;;;14.00;99.90;;;;;;5058757;28;20079;-82
2023/03/13 10:07:03;;;;;;;0.55;0.55;;;14.30;99.90;;;;;;5037887;28;20523;-82
2023/03/13 10:09:31;;;;;;;0.50;0.50;;;14.20;99.90;;;;;;5050986;28;20142;-81
2023/03/13 10:12:13;;;;;;;0.60;0.60;;;14.10;99.90;;;;;;5038179;28;20082;-82
2023/03/13 10:14:45;;;;;;;0.50;0.50;;;14.10;99.90;;;;;;5037350;28;20121;-81
2023/03/13 10:17:33;;;;;;;0.50;0.50;;;14.00;99.90;;;;;;5059446;28;20119;-82
2023/03/13 10:20:22;;;;;;;0.57;0.57;;;14.40;99.90;;;;;;5055752;28;20102;-85
2023/03/13 10:22:57;;;;;;;0.60;0.60;;;15.50;99.90;;;;;;5041930;28;20055;-85
2023/03/13 10:25:30;;;;;;;0.60;0.60;;;15.80;99.90;;;;;;5024483;28;20052;-82
2023/03/13 10:27:57;;;;;;;0.60;0.60;;;15.30;99.90;;;;;;5041020;28;20051;-88
2023/03/13 10:30:30;;;;;;;0.60;0.60;;;15.10;99.90;;;;;;5021208;28;20071;-81
2023/03/13 10:33:16;;;;;;;0.50;0.50;;;15.10;99.90;;;;;;5042492;28;20056;-81
2023/03/13 10:35:43;;;;;;;0.60;0.60;;;15.00;99.90;;;;;;5042418;28;20048;-83
2023/03/13 10:38:16;;;;;;;0.50;0.50;;;14.80;99.90;;;;;;5038336;28;20370;-81
2023/03/13 10:40:42;;;;;;;0.50;0.50;;;14.80;99.90;;;;;;5031975;28;20653;-83
2023/03/13 10:43:19;;;;;;;0.57;0.57;;;14.80;99.90;;;;;;5057631;28;20142;-83
2023/03/13 10:45:46;;;;;;;0.50;0.50;;;14.80;99.90;;;;;;5038828;28;20060;-81
2023/03/13 10:48:11;;;;;;;0.50;0.50;;;14.80;99.90;;;;;;5058622;28;20067;-85
2023/03/13 10:50:42;;;;;;;0.50;0.50;;;14.90;99.90;;;;;;5015107;28;20036;-82
2023/03/13 10:53:28;;;;;;;0.50;0.50;;;14.90;99.90;;;;;;5040568;28;20050;-80
2023/03/13 10:56:07;;;;;;;0.50;0.50;;;15.00;99.90;;;;;;5007629;28;20508;-81
2023/03/13 10:58:48;;;;;;;0.50;0.50;;;15.00;99.90;;;;;;5038653;28;20042;-82
2023/03/13 11:01:22;;;;;;;0.55;0.55;;;15.10;99.90;;;;;;5053799;28;20044;-79
2023/03/13 11:03:48;;;;;;;;;;;15.20;99.90;;;;;;5038754;28;20667;-84
2023/03/13 11:06:31;;;;;;;0.50;0.50;;;15.20;99.90;;;;;;5041374;28;19924;-81
2023/03/13 11:09:09;;;;;;;0.50;0.50;;;15.30;99.90;;;;;;5060729;28;20077;-85
2023/03/13 11:12:02;;;;;;;0.55;0.55;;;15.40;99.90;;;;;;5038723;28;20055;-84
2023/03/13 11:14:28;;;;;;;0.60;0.60;;;15.60;99.90;;;;;;5024390;28;20048;-80
2023/03/13 11:17:23;;;;;;;0.55;0.55;;;15.60;99.90;;;;;;5057501;28;20044;-83
2023/03/13 11:20:17;;;;;;;0.50;0.50;;;15.60;99.90;;;;;;5052498;28;20054;-82
2023/03/13 11:22:43;;;;;;;;;;;15.80;99.90;;;;;;5048988;28;20134;-82
2023/03/13 11:25:19;;;;;;;0.52;0.52;;;15.70;99.90;;;;;;5057827;28;19928;-80
2023/03/13 11:27:48;;;;;;;0.55;0.55;;;15.90;99.90;;;;;;5058136;28;20052;-79
2023/03/13 11:30:39;;;;;;;0.50;0.50;;;16.10;99.90;;;;;;5055179;28;20043;-79
2023/03/13 11:33:09;;;;;;;0.50;0.50;;;16.10;99.90;;;;;;5071996;28;20075;-78
2023/03/13 11:35:48;;;;;;;0.50;0.50;;;16.00;99.90;;;;;;5077271;28;20040;-80
2023/03/13 11:38:25;;;;;;;0.52;0.52;;;16.50;99.90;;;;;;5074448;28;20062;-81
2023/03/13 11:41:09;;;;;;;0.50;0.50;;;16.40;99.90;;;;;;5045768;28;20730;-81
2023/03/13 11:44:20;;;;;;;0.60;0.60;;;16.40;99.90;;;;;;5054392;28;20538;-82
2023/03/13 11:46:57;;;;;;;0.60;0.60;;;16.50;99.90;;;;;;5035737;28;20064;-82
2023/03/13 11:49:50;;;;;;;0.50;0.50;;;16.30;99.90;;;;;;5066948;28;20135;-81
2023/03/13 11:52:26;;;;;;;0.50;0.50;;;16.20;99.90;;;;;;5056411;28;20490;-82
2023/03/13 11:55:02;;;;;;;0.50;0.50;;;16.50;99.90;;;;;;5070380;28;20040;-82
2023/03/13 11:57:37;;;;;;;0.50;0.50;;;16.30;99.90;;;;;;5053491;28;20040;-82
2023/03/13 12:00:27;;;;;;;0.50;0.50;;;16.20;99.90;;;;;;5070201;28;20040;-83
2023/03/13 12:03:05;;;;;;;0.50;0.50;;;16.20;99.90;;;;;;5053924;28;20048;-84
2023/03/13 12:05:58;;;;;;;0.50;0.50;;;16.10;99.90;;;;;;5040518;28;20055;-85
2023/03/13 12:08:30;;;;;;;0.50;0.50;;;16.10;99.90;;;;;;5075093;28;20572;-83
2023/03/13 12:11:19;;;;;;;0.50;0.50;;;16.40;99.90;;;;;;5053683;28;20098;-82
2023/03/13 12:14:17;;;;;;;0.50;0.50;;;16.50;99.90;;;;;;5051993;28;20055;-84
2023/03/13 12:16:49;;;;;;;0.50;0.50;;;17.20;99.90;;;;;;5043193;28;20048;-82
2023/03/13 12:19:31;;;;;;;0.50;0.50;;;17.10;99.90;;;;;;5051953;28;20537;-84
2023/03/13 12:22:12;;;;;;;0.50;0.50;;;17.30;99.90;;;;;;5055890;28;20052;-82
2023/03/13 12:24:45;;;;;;;0.60;0.60;;;17.40;99.90;;;;;;5056216;28;20059;-83
2023/03/13 12:27:25;;;;;;;0.57;0.57;;;17.20;99.90;;;;;;5069913;28;20044;-81
2023/03/13 12:30:05;;;;;;;0.50;0.50;;;17.20;99.90;;;;;;5046988;28;20056;-89
2023/03/13 12:32:56;;;;;;;0.50;0.50;;;17.50;99.90;;;;;;5064737;28;20051;-82
2023/03/13 12:35:27;;;;;;;0.50;0.50;;;17.10;99.90;;;;;;5059639;28;20578;-86
2023/03/13 12:38:19;;;;;;;0.43;0.43;;;17.20;99.90;;;;;;5052127;28;20048;-85
2023/03/13 12:40:48;;;;;;;0.50;0.50;;;17.40;99.90;;;;;;5041927;28;20517;-84
2023/03/13 12:43:33;;;;;;;0.50;0.50;;;17.20;99.90;;;;;;5041818;28;20044;-82
2023/03/13 12:45:59;;;;;;;0.50;0.50;;;17.00;99.90;;;;;;5045985;28;20040;-83
2023/03/13 12:49:02;;;;;;;0.50;0.50;;;16.90;99.90;;;;;;5059697;28;20051;-83
2023/03/13 12:51:37;;;;;;;0.50;0.50;;;16.80;99.90;;;;;;5056382;28;20152;-83
2023/03/13 12:54:14;;;;;;;0.50;0.50;;;17.30;99.90;;;;;;5059955;28;20048;-83
2023/03/13 12:56:44;;;;;;;0.50;0.50;;;17.00;99.90;;;;;;5055838;28;20048;-84
2023/03/13 12:59:18;;;;;;;0.50;0.50;;;17.50;99.90;;;;;;5057053;28;20113;-82
2023/03/13 13:01:53;;;;;;;0.50;0.50;;;17.40;99.90;;;;;;5055236;28;20078;-83
2023/03/13 13:04:40;;;;;;;0.50;0.50;;;17.20;99.90;;;;;;5059994;28;20055;-83